Time;durP1;ratioP1;P1;durP2;ratioP2;P2;SDS_P1;SDS_P2;PMS_P1;PMS_P2;Temp;Humidity;BMP_temperature;BMP_pressure;BME280_temperature;BME280_humidity;BME280_pressure;Samples;Min_cycle;Max_cycle;Signal;HPM_P1;HPM_P2
2023/05/05 00:00:16;;;;;;;7.20;6.50;;;;;;;;;;4955282;29;20613;-67
2023/05/05 00:02:45;;;;;;;8.33;6.90;;;;;;;;;;4953654;29;20707;-68
2023/05/05 00:05:13;;;;;;;8.20;7.40;;;;;;;;;;4954655;29;20679;-68
2023/05/05 00:07:41;;;;;;;6.80;6.30;;;;;;;;;;4954540;29;20695;-68
2023/05/05 00:10:10;;;;;;;9.17;6.10;;;;;;;;;;4960159;29;20668;-68
2023/05/05 00:12:40;;;;;;;7.23;6.53;;;;;;;;;;4952116;29;20626;-67
2023/05/05 00:15:09;;;;;;;6.77;6.30;;;;;;;;;;4939877;29;20646;-68
2023/05/05 00:17:37;;;;;;;8.10;6.80;;;;;;;;;;4956063;29;20602;-67
2023/05/05 00:20:06;;;;;;;8.67;6.77;;;;;;;;;;4956044;29;20579;-68
2023/05/05 00:22:35;;;;;;;8.27;6.60;;;;;;;;;;4955672;29;20616;-67
2023/05/05 00:25:03;;;;;;;13.23;6.60;;;;;;;;;;4955495;29;20653;-68
2023/05/05 00:27:31;;;;;;;6.60;6.00;;;;;;;;;;4954536;29;20675;-67
2023/05/05 00:30:01;;;;;;;8.40;6.23;;;;;;;;;;4954677;29;20680;-69
2023/05/05 00:32:29;;;;;;;7.63;6.83;;;;;;;;;;4954322;29;20622;-68
2023/05/05 00:34:58;;;;;;;6.63;6.03;;;;;;;;;;4943604;29;20623;-67
2023/05/05 00:37:26;;;;;;;7.20;6.60;;;;;;;;;;4935487;29;20611;-67
2023/05/05 00:39:54;;;;;;;7.10;6.57;;;;;;;;;;4935982;29;20672;-67
2023/05/05 00:42:22;;;;;;;8.23;6.90;;;;;;;;;;4919338;29;20611;-68
2023/05/05 00:44:51;;;;;;;11.63;6.60;;;;;;;;;;4920698;29;20641;-67
2023/05/05 00:47:21;;;;;;;7.27;6.67;;;;;;;;;;4949190;29;20680;-68
2023/05/05 00:49:49;;;;;;;8.07;7.07;;;;;;;;;;4939079;29;20618;-67
2023/05/05 00:52:17;;;;;;;8.10;6.70;;;;;;;;;;4955211;29;20647;-67
2023/05/05 00:54:45;;;;;;;7.97;7.37;;;;;;;;;;4954688;29;21022;-68
2023/05/05 00:57:14;;;;;;;8.10;7.10;;;;;;;;;;4955424;29;20611;-68
2023/05/05 00:59:43;;;;;;;8.27;7.47;;;;;;;;;;4955519;29;20651;-66
2023/05/05 01:02:11;;;;;;;7.70;7.00;;;;;;;;;;4941592;29;20686;-64
2023/05/05 01:04:41;;;;;;;7.37;6.67;;;;;;;;;;4940470;29;20619;-62
2023/05/05 01:07:14;;;;;;;7.30;6.63;;;;;;;;;;4940789;29;20631;-63
2023/05/05 01:09:47;;;;;;;7.90;7.20;;;;;;;;;;4940403;29;21319;-64
2023/05/05 01:12:21;;;;;;;9.87;7.40;;;;;;;;;;4940941;29;20655;-64
2023/05/05 01:14:53;;;;;;;7.70;7.13;;;;;;;;;;4941209;29;20687;-63
2023/05/05 01:17:23;;;;;;;8.93;8.03;;;;;;;;;;4941831;29;20682;-63
2023/05/05 01:19:59;;;;;;;8.73;6.90;;;;;;;;;;4941192;29;20674;-63
2023/05/05 01:22:29;;;;;;;11.33;7.13;;;;;;;;;;4932281;29;20704;-63
2023/05/05 01:25:04;;;;;;;13.20;7.60;;;;;;;;;;4922285;29;20640;-63
2023/05/05 01:27:45;;;;;;;11.80;7.23;;;;;;;;;;4937930;29;20713;-63
2023/05/05 01:30:21;;;;;;;7.50;6.90;;;;;;;;;;4941202;29;20627;-63
2023/05/05 01:32:54;;;;;;;8.37;7.60;;;;;;;;;;4940150;29;20654;-63
2023/05/05 01:35:26;;;;;;;7.40;6.70;;;;;;;;;;4941006;29;20982;-63
2023/05/05 01:37:59;;;;;;;7.57;6.80;;;;;;;;;;4939686;29;20611;-63
2023/05/05 01:40:29;;;;;;;8.33;7.63;;;;;;;;;;4939752;29;20676;-64
2023/05/05 01:42:59;;;;;;;8.30;7.23;;;;;;;;;;4941079;29;20696;-63
2023/05/05 01:45:30;;;;;;;8.33;7.70;;;;;;;;;;4939385;29;20679;-64
2023/05/05 01:48:01;;;;;;;7.37;6.70;;;;;;;;;;4941293;29;20751;-63
2023/05/05 01:50:30;;;;;;;9.43;7.97;;;;;;;;;;4940916;29;20675;-62
2023/05/05 01:52:59;;;;;;;8.60;7.63;;;;;;;;;;4940321;29;20723;-63
2023/05/05 01:55:28;;;;;;;10.53;8.17;;;;;;;;;;4941316;29;20651;-63
2023/05/05 01:57:58;;;;;;;10.37;7.37;;;;;;;;;;4923625;29;20694;-63
2023/05/05 02:00:26;;;;;;;10.30;8.43;;;;;;;;;;4940142;29;20686;-65
2023/05/05 02:02:56;;;;;;;9.00;7.67;;;;;;;;;;4937821;29;20603;-64
2023/05/05 02:05:27;;;;;;;9.30;7.80;;;;;;;;;;4939195;29;21224;-63
2023/05/05 02:07:57;;;;;;;9.40;7.73;;;;;;;;;;4939877;29;20995;-64
2023/05/05 02:10:26;;;;;;;8.63;7.67;;;;;;;;;;4939698;29;20775;-65
2023/05/05 02:12:54;;;;;;;7.63;7.00;;;;;;;;;;4939498;29;20731;-63
2023/05/05 02:15:24;;;;;;;9.03;7.63;;;;;;;;;;4939706;29;20793;-63
2023/05/05 02:17:52;;;;;;;8.87;8.07;;;;;;;;;;4940194;29;20702;-64
2023/05/05 02:20:21;;;;;;;18.00;7.33;;;;;;;;;;4938334;29;20707;-63
2023/05/05 02:22:50;;;;;;;8.97;7.53;;;;;;;;;;4940002;29;20715;-64
2023/05/05 02:25:19;;;;;;;7.63;6.90;;;;;;;;;;4939796;29;20692;-63
2023/05/05 02:27:49;;;;;;;9.67;7.23;;;;;;;;;;4939764;29;20739;-63
2023/05/05 02:30:18;;;;;;;7.57;6.80;;;;;;;;;;4939633;29;20693;-63
2023/05/05 02:32:49;;;;;;;7.33;6.80;;;;;;;;;;4939097;29;20702;-63
2023/05/05 02:35:20;;;;;;;10.40;6.87;;;;;;;;;;4927045;29;21211;-63
2023/05/05 02:37:51;;;;;;;7.80;7.10;;;;;;;;;;4939197;29;20666;-64
2023/05/05 02:40:24;;;;;;;8.80;8.10;;;;;;;;;;4939324;29;20726;-64
2023/05/05 02:42:55;;;;;;;7.33;6.73;;;;;;;;;;4937590;29;20755;-65
2023/05/05 02:45:29;;;;;;;8.67;7.87;;;;;;;;;;4926835;29;20754;-63
2023/05/05 02:47:57;;;;;;;8.37;7.50;;;;;;;;;;4938953;29;20635;-63
2023/05/05 02:50:26;;;;;;;8.63;7.37;;;;;;;;;;4939061;29;20782;-65
2023/05/05 02:53:03;;;;;;;6.90;6.40;;;;;;;;;;4938387;29;21003;-64
2023/05/05 02:55:34;;;;;;;8.43;7.63;;;;;;;;;;4933369;29;21078;-64
2023/05/05 02:58:05;;;;;;;9.43;7.60;;;;;;;;;;4939800;29;20699;-64
2023/05/05 03:00:39;;;;;;;8.47;7.77;;;;;;;;;;4928843;29;21188;-65
2023/05/05 03:03:12;;;;;;;8.10;7.07;;;;;;;;;;4921612;29;20631;-65
2023/05/05 03:05:44;;;;;;;8.33;7.50;;;;;;;;;;4951009;29;20675;-64
2023/05/05 03:08:17;;;;;;;9.10;8.20;;;;;;;;;;4922406;29;20695;-64
2023/05/05 03:10:47;;;;;;;8.30;7.53;;;;;;;;;;4914374;29;20783;-65
2023/05/05 03:13:17;;;;;;;6.47;5.97;;;;;;;;;;4939752;29;21173;-64
2023/05/05 03:15:48;;;;;;;8.67;6.70;;;;;;;;;;4937662;29;20668;-64
2023/05/05 03:18:20;;;;;;;9.73;8.03;;;;;;;;;;4939190;29;20697;-65
2023/05/05 03:20:55;;;;;;;7.77;7.03;;;;;;;;;;4939100;29;20559;-63
2023/05/05 03:23:25;;;;;;;8.90;8.00;;;;;;;;;;4938398;29;20678;-65
2023/05/05 03:25:58;;;;;;;9.13;8.33;;;;;;;;;;4937966;29;20652;-64
2023/05/05 03:28:33;;;;;;;7.30;6.70;;;;;;;;;;4936075;29;20745;-64
2023/05/05 03:31:07;;;;;;;8.20;7.37;;;;;;;;;;4926938;29;20650;-67
2023/05/05 03:33:38;;;;;;;8.97;8.27;;;;;;;;;;4911112;29;20597;-64
2023/05/05 03:36:07;;;;;;;10.40;7.40;;;;;;;;;;4907055;29;20739;-64
2023/05/05 03:38:37;;;;;;;8.40;7.60;;;;;;;;;;4923156;29;20692;-68
2023/05/05 03:41:06;;;;;;;8.50;7.73;;;;;;;;;;4906703;29;20716;-66
2023/05/05 03:43:34;;;;;;;8.80;7.63;;;;;;;;;;4907281;29;20695;-63
2023/05/05 03:46:03;;;;;;;8.43;7.70;;;;;;;;;;4923182;29;20866;-63
2023/05/05 03:48:32;;;;;;;8.03;7.33;;;;;;;;;;4940053;29;20723;-64
2023/05/05 03:51:01;;;;;;;8.60;7.80;;;;;;;;;;4939987;29;20603;-64
2023/05/05 03:53:31;;;;;;;8.83;7.93;;;;;;;;;;4924486;29;20632;-63
2023/05/05 03:56:02;;;;;;;8.93;8.20;;;;;;;;;;4924653;29;20697;-63
2023/05/05 03:58:32;;;;;;;9.77;8.80;;;;;;;;;;4941180;29;20599;-64
2023/05/05 04:01:00;;;;;;;9.10;8.20;;;;;;;;;;4940070;29;20616;-62
2023/05/05 04:03:28;;;;;;;9.30;8.37;;;;;;;;;;4938215;29;20624;-64
2023/05/05 04:05:57;;;;;;;8.43;7.53;;;;;;;;;;4939804;29;21174;-63
2023/05/05 04:08:25;;;;;;;8.10;7.40;;;;;;;;;;4923481;29;20652;-63
2023/05/05 04:10:56;;;;;;;9.00;7.83;;;;;;;;;;4923006;29;20732;-64
2023/05/05 04:13:25;;;;;;;8.50;7.30;;;;;;;;;;4939958;29;20658;-63
2023/05/05 04:15:54;;;;;;;10.47;7.27;;;;;;;;;;4940015;29;20618;-64
2023/05/05 04:18:22;;;;;;;8.10;7.40;;;;;;;;;;4939820;29;21034;-64
2023/05/05 04:20:51;;;;;;;9.70;8.70;;;;;;;;;;4904805;29;20591;-63
2023/05/05 04:23:20;;;;;;;8.53;7.73;;;;;;;;;;4923289;29;20884;-63
2023/05/05 04:25:49;;;;;;;8.87;8.07;;;;;;;;;;4927962;29;20634;-63
2023/05/05 04:28:17;;;;;;;8.93;7.30;;;;;;;;;;4925484;29;20638;-64
2023/05/05 04:30:47;;;;;;;8.50;7.80;;;;;;;;;;4939272;29;20712;-64
2023/05/05 04:33:15;;;;;;;7.70;6.90;;;;;;;;;;4941038;29;20730;-62
2023/05/05 04:35:44;;;;;;;8.03;7.33;;;;;;;;;;4928647;29;20691;-63
2023/05/05 04:38:12;;;;;;;8.27;7.57;;;;;;;;;;4939093;29;20623;-64
2023/05/05 04:40:40;;;;;;;11.68;7.40;;;;;;;;;;4938405;29;20602;-63
2023/05/05 04:43:10;;;;;;;10.20;8.27;;;;;;;;;;4923105;29;20205;-63
2023/05/05 04:45:38;;;;;;;10.90;7.47;;;;;;;;;;4922587;29;20611;-63
2023/05/05 04:48:09;;;;;;;11.10;7.20;;;;;;;;;;4923585;29;20981;-62
2023/05/05 04:50:38;;;;;;;8.03;7.30;;;;;;;;;;4939527;29;20636;-64
2023/05/05 04:53:06;;;;;;;7.83;7.13;;;;;;;;;;4922563;29;20638;-64
2023/05/05 04:55:34;;;;;;;7.60;7.00;;;;;;;;;;4939860;29;20959;-62
2023/05/05 04:58:03;;;;;;;9.60;8.80;;;;;;;;;;4940256;29;20703;-63
2023/05/05 05:00:31;;;;;;;11.73;7.60;;;;;;;;;;4939720;29;20617;-63
2023/05/05 05:02:59;;;;;;;10.30;7.60;;;;;;;;;;4938851;29;20639;-63
2023/05/05 05:05:29;;;;;;;8.83;7.10;;;;;;;;;;4939738;29;20688;-63
2023/05/05 05:07:57;;;;;;;8.60;7.27;;;;;;;;;;4937067;29;20689;-63
2023/05/05 05:10:26;;;;;;;8.23;7.43;;;;;;;;;;4937806;29;21155;-63
2023/05/05 05:12:54;;;;;;;7.27;6.50;;;;;;;;;;4939309;29;20739;-63
2023/05/05 05:15:22;;;;;;;10.73;8.23;;;;;;;;;;4938226;29;20708;-64
2023/05/05 05:17:50;;;;;;;8.70;8.00;;;;;;;;;;4939048;29;20716;-63
2023/05/05 05:20:19;;;;;;;7.60;6.90;;;;;;;;;;4928460;29;20719;-63
2023/05/05 05:22:49;;;;;;;9.57;7.23;;;;;;;;;;4920331;29;20622;-64
2023/05/05 05:25:21;;;;;;;8.27;6.47;;;;;;;;;;4945706;29;20698;-63
2023/05/05 05:27:49;;;;;;;8.03;7.23;;;;;;;;;;4926929;29;21208;-63
2023/05/05 05:30:19;;;;;;;7.30;6.70;;;;;;;;;;4930116;29;20656;-64
2023/05/05 05:32:47;;;;;;;6.97;6.27;;;;;;;;;;4937590;29;20661;-63
2023/05/05 05:35:16;;;;;;;7.40;6.80;;;;;;;;;;4936682;29;21100;-67
2023/05/05 05:37:46;;;;;;;8.83;6.70;;;;;;;;;;4928177;29;20288;-64
2023/05/05 05:40:18;;;;;;;7.90;6.60;;;;;;;;;;4951563;29;20593;-65
2023/05/05 05:42:46;;;;;;;9.27;7.20;;;;;;;;;;4949082;29;20646;-66
2023/05/05 05:45:14;;;;;;;7.00;6.40;;;;;;;;;;4946444;29;20627;-66
2023/05/05 05:47:43;;;;;;;10.40;6.80;;;;;;;;;;4933472;29;20632;-66
2023/05/05 05:50:12;;;;;;;8.27;7.43;;;;;;;;;;4937585;29;20743;-65
2023/05/05 05:52:41;;;;;;;8.10;7.43;;;;;;;;;;4928508;29;21080;-66
2023/05/05 05:55:09;;;;;;;8.83;7.63;;;;;;;;;;4932076;29;20685;-65
2023/05/05 05:57:40;;;;;;;9.17;6.60;;;;;;;;;;4932106;29;20648;-64
2023/05/05 06:00:11;;;;;;;7.80;7.00;;;;;;;;;;4929930;29;20636;-65
2023/05/05 06:02:45;;;;;;;9.13;7.03;;;;;;;;;;4934619;29;20617;-64
2023/05/05 06:05:17;;;;;;;7.37;6.67;;;;;;;;;;4918025;29;20606;-65
2023/05/05 06:07:47;;;;;;;7.57;6.87;;;;;;;;;;4925361;29;20648;-66
2023/05/05 06:10:16;;;;;;;7.20;6.60;;;;;;;;;;4925144;29;20667;-65
2023/05/05 06:12:46;;;;;;;7.30;6.63;;;;;;;;;;4942537;29;20686;-64
2023/05/05 06:15:14;;;;;;;8.67;7.33;;;;;;;;;;4939627;29;20799;-65
2023/05/05 06:17:42;;;;;;;8.23;7.03;;;;;;;;;;4939968;29;21298;-66
2023/05/05 06:20:12;;;;;;;7.57;6.87;;;;;;;;;;4940663;29;20683;-65
2023/05/05 06:22:41;;;;;;;7.60;7.00;;;;;;;;;;4934364;29;20732;-64
2023/05/05 06:25:09;;;;;;;9.77;6.27;;;;;;;;;;4923224;29;20724;-64
2023/05/05 06:27:39;;;;;;;7.40;6.50;;;;;;;;;;4944573;29;20729;-65
2023/05/05 06:30:09;;;;;;;6.43;5.83;;;;;;;;;;4919065;29;20723;-65
2023/05/05 06:32:37;;;;;;;7.10;6.50;;;;;;;;;;4940930;29;20747;-65
2023/05/05 06:35:06;;;;;;;5.83;5.17;;;;;;;;;;4933980;29;20702;-67
2023/05/05 06:37:34;;;;;;;8.83;6.20;;;;;;;;;;4933763;29;20675;-64
2023/05/05 06:40:03;;;;;;;10.00;5.97;;;;;;;;;;4942506;29;21223;-65
2023/05/05 06:42:31;;;;;;;7.57;5.90;;;;;;;;;;4945576;29;20687;-61
2023/05/05 06:45:00;;;;;;;6.93;5.70;;;;;;;;;;4923761;29;20707;-64
2023/05/05 06:47:30;;;;;;;6.33;5.73;;;;;;;;;;4941067;29;20693;-64
2023/05/05 06:49:58;;;;;;;6.50;5.87;;;;;;;;;;4941021;29;20766;-65
2023/05/05 06:52:26;;;;;;;6.63;5.93;;;;;;;;;;4925895;29;20725;-65
2023/05/05 06:54:54;;;;;;;5.90;5.40;;;;;;;;;;4941896;29;20727;-64
2023/05/05 06:57:23;;;;;;;8.00;6.43;;;;;;;;;;4940788;29;20795;-64
2023/05/05 06:59:51;;;;;;;6.17;5.70;;;;;;;;;;4938028;29;21308;-64
2023/05/05 07:02:19;;;;;;;8.33;6.00;;;;;;;;;;4938638;29;20732;-64
2023/05/05 07:04:49;;;;;;;6.63;6.00;;;;;;;;;;4943185;29;20732;-65
2023/05/05 07:07:18;;;;;;;6.80;5.83;;;;;;;;;;4946218;29;20724;-63
2023/05/05 07:09:46;;;;;;;6.87;6.13;;;;;;;;;;4931776;29;20667;-65
2023/05/05 07:12:14;;;;;;;6.53;6.03;;;;;;;;;;4947413;29;20784;-63
2023/05/05 07:14:42;;;;;;;7.17;6.47;;;;;;;;;;4945303;29;20792;-65
2023/05/05 07:17:11;;;;;;;6.37;5.90;;;;;;;;;;4941057;29;21082;-62
2023/05/05 07:19:39;;;;;;;10.77;5.50;;;;;;;;;;4946004;29;20696;-63
2023/05/05 07:22:09;;;;;;;7.27;6.57;;;;;;;;;;4947334;29;20659;-62
2023/05/05 07:24:37;;;;;;;5.17;4.80;;;;;;;;;;4942884;29;20715;-66
2023/05/05 07:27:05;;;;;;;4.87;4.47;;;;;;;;;;4942355;29;20720;-66
2023/05/05 07:29:34;;;;;;;8.20;4.80;;;;;;;;;;4941228;29;20668;-65
2023/05/05 07:32:02;;;;;;;5.20;4.90;;;;;;;;;;4928629;29;20616;-66
2023/05/05 07:34:33;;;;;;;7.33;5.07;;;;;;;;;;4941668;29;21086;-64
2023/05/05 07:37:01;;;;;;;5.00;4.57;;;;;;;;;;4941935;29;20877;-65
2023/05/05 07:39:30;;;;;;;5.60;5.17;;;;;;;;;;4941587;29;20735;-63
2023/05/05 07:42:00;;;;;;;5.53;4.50;;;;;;;;;;4941658;29;20622;-65
2023/05/05 07:44:28;;;;;;;5.50;5.10;;;;;;;;;;4941549;29;20682;-63
2023/05/05 07:46:56;;;;;;;5.77;5.20;;;;;;;;;;4941332;29;20727;-65
2023/05/05 07:49:25;;;;;;;5.33;4.30;;;;;;;;;;4940701;29;20635;-63
2023/05/05 07:51:54;;;;;;;5.77;4.90;;;;;;;;;;4940255;29;20612;-64
2023/05/05 07:54:22;;;;;;;4.47;4.10;;;;;;;;;;4940931;29;21073;-63
2023/05/05 07:56:52;;;;;;;4.20;3.90;;;;;;;;;;4940448;29;20628;-63
2023/05/05 07:59:20;;;;;;;4.47;4.03;;;;;;;;;;4941007;29;20617;-62
2023/05/05 08:01:48;;;;;;;4.33;3.93;;;;;;;;;;4940048;29;20615;-65
2023/05/05 08:04:16;;;;;;;4.13;3.83;;;;;;;;;;4940860;29;20682;-64
2023/05/05 08:06:45;;;;;;;4.40;4.10;;;;;;;;;;4943272;29;20723;-64
2023/05/05 08:09:13;;;;;;;4.57;4.17;;;;;;;;;;4944133;29;20774;-65
2023/05/05 08:11:41;;;;;;;6.83;4.50;;;;;;;;;;4944695;29;20807;-64
2023/05/05 08:14:11;;;;;;;5.50;4.40;;;;;;;;;;4930640;29;20674;-64
2023/05/05 08:16:39;;;;;;;4.20;3.90;;;;;;;;;;4937234;29;20632;-63
2023/05/05 08:19:07;;;;;;;5.70;4.07;;;;;;;;;;4942083;29;21261;-65
2023/05/05 08:21:36;;;;;;;8.77;4.13;;;;;;;;;;4941865;29;20731;-67
2023/05/05 08:24:04;;;;;;;4.23;3.93;;;;;;;;;;4942508;29;20628;-65
2023/05/05 08:26:32;;;;;;;5.33;4.20;;;;;;;;;;4934465;29;20632;-64
2023/05/05 08:29:00;;;;;;;5.93;4.60;;;;;;;;;;4939562;29;20711;-64
2023/05/05 08:31:30;;;;;;;4.10;3.77;;;;;;;;;;4938862;29;20670;-64
2023/05/05 08:33:58;;;;;;;5.47;4.93;;;;;;;;;;4939431;29;20716;-65
2023/05/05 08:36:27;;;;;;;4.70;4.40;;;;;;;;;;4940420;29;21288;-65
2023/05/05 08:38:56;;;;;;;4.47;4.17;;;;;;;;;;4941322;29;21324;-65
2023/05/05 08:41:25;;;;;;;4.00;3.80;;;;;;;;;;4942862;29;20722;-65
2023/05/05 08:43:53;;;;;;;4.47;4.07;;;;;;;;;;4944107;29;21100;-65
2023/05/05 08:46:21;;;;;;;5.30;4.10;;;;;;;;;;4911350;29;20709;-64
2023/05/05 08:48:54;;;;;;;5.60;4.63;;;;;;;;;;4943381;29;20692;-64
2023/05/05 08:51:22;;;;;;;6.57;4.27;;;;;;;;;;4942382;29;20746;-64
2023/05/05 08:53:57;;;;;;;7.90;4.33;;;;;;;;;;4940891;29;20657;-64
2023/05/05 08:56:27;;;;;;;4.20;4.00;;;;;;;;;;4940640;29;20695;-64
2023/05/05 08:58:55;;;;;;;6.50;4.70;;;;;;;;;;4937717;29;20688;-64
2023/05/05 09:01:23;;;;;;;6.30;3.93;;;;;;;;;;4944221;29;20763;-64
2023/05/05 09:03:53;;;;;;;4.83;4.53;;;;;;;;;;4943806;29;20723;-63
2023/05/05 09:06:22;;;;;;;4.40;4.20;;;;;;;;;;4925394;29;20700;-64
2023/05/05 09:08:50;;;;;;;4.33;3.93;;;;;;;;;;4942214;29;20729;-66
2023/05/05 09:11:18;;;;;;;4.10;3.90;;;;;;;;;;4894448;29;20833;-64
2023/05/05 09:13:47;;;;;;;6.60;4.10;;;;;;;;;;4903587;29;20721;-71
2023/05/05 09:16:15;;;;;;;3.83;3.63;;;;;;;;;;4904471;29;20766;-64
2023/05/05 09:18:44;;;;;;;4.67;4.37;;;;;;;;;;4902649;29;21344;-64
2023/05/05 09:21:24;;;;;;;4.20;3.90;;;;;;;;;;4901722;29;20698;-63
2023/05/05 09:24:05;;;;;;;5.27;4.13;;;;;;;;;;4901341;29;20743;-63
2023/05/05 09:26:34;;;;;;;4.10;3.80;;;;;;;;;;4905770;29;20697;-66
2023/05/05 09:29:03;;;;;;;5.00;3.70;;;;;;;;;;4902638;29;20725;-65
2023/05/05 09:31:32;;;;;;;4.93;3.93;;;;;;;;;;4901180;29;21066;-64
2023/05/05 09:34:00;;;;;;;5.33;4.10;;;;;;;;;;4904171;29;20991;-64
2023/05/05 09:36:43;;;;;;;4.40;3.77;;;;;;;;;;4904747;29;20715;-63
2023/05/05 09:39:11;;;;;;;4.63;4.27;;;;;;;;;;4896790;29;21259;-64
2023/05/05 09:41:40;;;;;;;4.10;3.70;;;;;;;;;;4921742;29;20802;-63
2023/05/05 09:44:09;;;;;;;6.33;3.90;;;;;;;;;;4903788;29;20785;-65
2023/05/05 09:46:37;;;;;;;4.90;4.00;;;;;;;;;;4905529;29;20686;-64
2023/05/05 09:49:13;;;;;;;4.00;3.90;;;;;;;;;;4904106;29;20634;-67
2023/05/05 09:51:43;;;;;;;5.07;4.57;;;;;;;;;;4905903;29;20654;-63
2023/05/05 09:54:22;;;;;;;4.17;3.97;;;;;;;;;;4895235;29;21048;-64
2023/05/05 09:56:51;;;;;;;5.80;4.40;;;;;;;;;;4897508;29;20968;-62
2023/05/05 09:59:19;;;;;;;5.87;4.60;;;;;;;;;;4894122;29;20977;-62
2023/05/05 10:01:49;;;;;;;4.60;4.20;;;;;;;;;;4912137;29;20630;-62
2023/05/05 10:04:24;;;;;;;11.57;4.70;;;;;;;;;;4893668;29;20630;-63
2023/05/05 10:06:54;;;;;;;4.20;4.00;;;;;;;;;;4897324;29;20610;-62
2023/05/05 10:09:23;;;;;;;4.60;4.30;;;;;;;;;;4903965;29;20663;-62
2023/05/05 10:11:52;;;;;;;5.07;4.77;;;;;;;;;;4935373;29;20707;-62
2023/05/05 10:14:20;;;;;;;4.90;4.60;;;;;;;;;;4934467;29;20635;-62
2023/05/05 10:16:49;;;;;;;5.17;4.87;;;;;;;;;;4934922;29;20624;-62
2023/05/05 10:19:19;;;;;;;7.90;5.07;;;;;;;;;;4912542;29;20656;-63
2023/05/05 10:21:48;;;;;;;5.03;4.83;;;;;;;;;;4935112;29;20623;-63
2023/05/05 10:24:31;;;;;;;4.80;4.60;;;;;;;;;;4933429;29;21080;-62
2023/05/05 10:27:01;;;;;;;8.60;4.63;;;;;;;;;;4918253;29;20623;-62
2023/05/05 10:29:37;;;;;;;5.00;4.80;;;;;;;;;;4933978;29;21026;-62
2023/05/05 10:32:08;;;;;;;6.50;6.10;;;;;;;;;;4933726;29;20710;-65
2023/05/05 10:34:39;;;;;;;5.60;5.30;;;;;;;;;;4933380;29;21190;-62
2023/05/05 10:37:07;;;;;;;5.10;4.90;;;;;;;;;;4919523;29;20624;-63
2023/05/05 10:39:38;;;;;;;4.80;4.60;;;;;;;;;;4935084;29;20974;-66
2023/05/05 10:42:06;;;;;;;5.10;4.90;;;;;;;;;;4934476;29;20628;-63
2023/05/05 10:44:35;;;;;;;5.03;4.83;;;;;;;;;;4916167;29;20613;-62
2023/05/05 10:47:04;;;;;;;5.37;4.90;;;;;;;;;;4931039;29;20630;-62
2023/05/05 10:49:36;;;;;;;5.03;4.63;;;;;;;;;;4918490;29;20632;-63
2023/05/05 10:52:10;;;;;;;5.53;5.03;;;;;;;;;;4933223;29;20640;-63
2023/05/05 10:54:44;;;;;;;5.17;4.77;;;;;;;;;;4934059;29;20612;-64
2023/05/05 10:57:12;;;;;;;5.57;5.17;;;;;;;;;;4932279;29;20697;-65
2023/05/05 10:59:43;;;;;;;5.63;5.23;;;;;;;;;;4933330;29;21138;-63
2023/05/05 11:02:21;;;;;;;5.63;5.23;;;;;;;;;;4931480;29;20628;-63
2023/05/05 11:05:08;;;;;;;5.80;5.50;;;;;;;;;;4931027;29;20596;-63
2023/05/05 11:07:37;;;;;;;4.97;4.80;;;;;;;;;;4930164;29;20616;-63
2023/05/05 11:10:07;;;;;;;5.27;4.87;;;;;;;;;;4902385;29;20668;-62
2023/05/05 11:12:50;;;;;;;5.37;5.17;;;;;;;;;;4930481;29;20648;-63
2023/05/05 11:15:40;;;;;;;6.00;5.60;;;;;;;;;;4930957;29;20678;-63
2023/05/05 11:18:08;;;;;;;5.50;5.23;;;;;;;;;;4931315;29;20610;-64
2023/05/05 11:21:02;;;;;;;7.83;5.90;;;;;;;;;;4931761;29;20629;-63
2023/05/05 11:23:31;;;;;;;6.03;5.60;;;;;;;;;;4931664;29;20605;-63
2023/05/05 11:26:00;;;;;;;5.60;5.40;;;;;;;;;;4930115;29;20659;-63
2023/05/05 11:28:30;;;;;;;6.60;6.10;;;;;;;;;;4931111;29;20647;-63
2023/05/05 11:31:17;;;;;;;5.63;5.43;;;;;;;;;;4931329;29;21262;-63
2023/05/05 11:33:45;;;;;;;6.13;5.73;;;;;;;;;;4930751;29;20625;-62
2023/05/05 11:36:14;;;;;;;5.97;5.67;;;;;;;;;;4933888;29;21005;-63
2023/05/05 11:38:48;;;;;;;5.50;5.20;;;;;;;;;;4936617;29;21058;-64
2023/05/05 11:41:23;;;;;;;5.20;5.00;;;;;;;;;;4916152;29;20642;-63
2023/05/05 11:43:51;;;;;;;6.13;5.57;;;;;;;;;;4936424;29;20620;-66
2023/05/05 11:46:19;;;;;;;5.77;5.27;;;;;;;;;;4935604;29;20679;-63
2023/05/05 11:48:48;;;;;;;5.77;5.50;;;;;;;;;;4937932;29;20716;-65
2023/05/05 11:51:17;;;;;;;5.60;5.30;;;;;;;;;;4938433;29;20633;-63
2023/05/05 11:53:46;;;;;;;9.60;6.07;;;;;;;;;;4942798;29;20737;-65
2023/05/05 11:56:17;;;;;;;14.60;5.70;;;;;;;;;;4941339;29;21250;-64
2023/05/05 11:58:47;;;;;;;6.37;5.63;;;;;;;;;;4943417;29;21043;-68
2023/05/05 12:01:16;;;;;;;5.37;4.83;;;;;;;;;;4942177;29;20713;-67
2023/05/05 12:03:44;;;;;;;5.93;5.13;;;;;;;;;;4940257;29;20775;-64
2023/05/05 12:06:13;;;;;;;6.20;5.80;;;;;;;;;;4935949;29;20646;-63
2023/05/05 12:08:42;;;;;;;6.13;5.60;;;;;;;;;;4935141;29;21175;-64
2023/05/05 12:11:11;;;;;;;5.73;5.33;;;;;;;;;;4918325;29;20667;-64
2023/05/05 12:13:40;;;;;;;5.73;5.23;;;;;;;;;;4913921;29;20656;-64
2023/05/05 12:16:10;;;;;;;7.70;6.30;;;;;;;;;;4934049;29;21185;-64
2023/05/05 12:18:39;;;;;;;5.53;5.23;;;;;;;;;;4944748;29;21051;-63
2023/05/05 12:21:14;;;;;;;6.23;5.70;;;;;;;;;;4922330;29;20628;-66
2023/05/05 12:23:42;;;;;;;5.70;5.30;;;;;;;;;;4936360;29;20626;-64
2023/05/05 12:26:24;;;;;;;5.50;5.30;;;;;;;;;;4920405;29;20644;-64
2023/05/05 12:28:52;;;;;;;10.20;5.47;;;;;;;;;;4935001;29;20655;-63
2023/05/05 12:31:22;;;;;;;5.70;5.30;;;;;;;;;;4934584;29;20663;-64
2023/05/05 12:33:51;;;;;;;6.00;5.57;;;;;;;;;;4935889;29;21062;-64
2023/05/05 12:36:19;;;;;;;6.50;5.97;;;;;;;;;;4920146;29;20636;-63
2023/05/05 12:38:47;;;;;;;5.57;5.37;;;;;;;;;;4922734;29;21260;-64
2023/05/05 12:41:20;;;;;;;5.87;5.37;;;;;;;;;;4934471;29;21174;-64
2023/05/05 12:43:48;;;;;;;5.17;4.67;;;;;;;;;;4934620;29;20616;-64
2023/05/05 12:46:16;;;;;;;4.80;4.37;;;;;;;;;;4934797;29;20628;-64
2023/05/05 12:48:46;;;;;;;5.73;5.43;;;;;;;;;;4935029;29;20640;-64
2023/05/05 12:51:15;;;;;;;6.10;5.60;;;;;;;;;;4934377;29;20634;-64
2023/05/05 12:53:44;;;;;;;5.43;5.03;;;;;;;;;;4934720;29;21040;-63
2023/05/05 12:56:32;;;;;;;5.20;4.90;;;;;;;;;;4934538;29;20639;-64
2023/05/05 12:59:00;;;;;;;7.30;5.90;;;;;;;;;;4931056;29;20621;-64
2023/05/05 13:01:28;;;;;;;5.80;5.37;;;;;;;;;;4929371;29;21152;-64
2023/05/05 13:04:08;;;;;;;5.67;5.37;;;;;;;;;;4932201;29;20636;-64
2023/05/05 13:06:36;;;;;;;5.53;5.13;;;;;;;;;;4934219;29;20616;-65
2023/05/05 13:09:05;;;;;;;5.93;5.33;;;;;;;;;;4931697;29;21034;-62
2023/05/05 13:11:37;;;;;;;6.70;5.37;;;;;;;;;;4934352;29;20670;-63
2023/05/05 13:14:05;;;;;;;6.27;5.73;;;;;;;;;;4934357;29;20652;-62
2023/05/05 13:16:34;;;;;;;6.20;5.90;;;;;;;;;;4931250;29;20673;-62
2023/05/05 13:19:02;;;;;;;6.23;5.70;;;;;;;;;;4916247;29;20645;-62
2023/05/05 13:21:32;;;;;;;5.47;5.10;;;;;;;;;;4928219;29;20640;-63
2023/05/05 13:24:00;;;;;;;5.50;5.23;;;;;;;;;;4933889;29;20699;-63
2023/05/05 13:26:29;;;;;;;5.17;4.97;;;;;;;;;;4912855;29;20629;-63
2023/05/05 13:28:57;;;;;;;5.47;5.17;;;;;;;;;;4933954;29;20634;-63
2023/05/05 13:31:25;;;;;;;5.60;5.30;;;;;;;;;;4934663;29;21186;-62
2023/05/05 13:33:53;;;;;;;5.37;5.07;;;;;;;;;;4933307;29;21009;-63
2023/05/05 13:36:22;;;;;;;5.30;5.10;;;;;;;;;;4932003;29;20681;-63
2023/05/05 13:38:51;;;;;;;5.17;4.77;;;;;;;;;;4930493;29;20730;-64
2023/05/05 13:41:19;;;;;;;5.83;5.43;;;;;;;;;;4934030;29;20631;-63
2023/05/05 13:43:48;;;;;;;6.07;5.60;;;;;;;;;;4935489;29;20636;-63
2023/05/05 13:46:16;;;;;;;5.67;5.40;;;;;;;;;;4934515;29;20690;-62
2023/05/05 13:48:44;;;;;;;7.90;6.07;;;;;;;;;;4941241;29;20647;-63
2023/05/05 13:51:12;;;;;;;5.97;5.47;;;;;;;;;;4932536;29;20624;-63
2023/05/05 13:53:42;;;;;;;6.20;5.90;;;;;;;;;;4939797;29;20671;-63
2023/05/05 13:56:12;;;;;;;6.10;5.73;;;;;;;;;;4934828;29;20640;-63
2023/05/05 13:58:41;;;;;;;6.37;6.00;;;;;;;;;;4937116;29;21190;-63
2023/05/05 14:01:10;;;;;;;6.27;5.93;;;;;;;;;;4935327;29;20686;-65
2023/05/05 14:03:39;;;;;;;5.83;5.53;;;;;;;;;;4918603;29;21214;-63
2023/05/05 14:06:08;;;;;;;6.27;6.07;;;;;;;;;;4936723;29;20639;-64
2023/05/05 14:08:36;;;;;;;6.17;5.80;;;;;;;;;;4933740;29;20654;-64
2023/05/05 14:11:04;;;;;;;6.20;5.80;;;;;;;;;;4931536;29;21074;-63
2023/05/05 14:13:34;;;;;;;6.53;6.07;;;;;;;;;;4936261;29;20668;-63
2023/05/05 14:16:02;;;;;;;6.40;6.10;;;;;;;;;;4933844;29;20628;-64
2023/05/05 14:18:30;;;;;;;6.20;5.83;;;;;;;;;;4937105;29;21150;-64
2023/05/05 14:20:58;;;;;;;6.13;5.73;;;;;;;;;;4938106;29;20628;-63
2023/05/05 14:23:27;;;;;;;6.40;5.97;;;;;;;;;;4916038;29;20679;-63
2023/05/05 14:25:55;;;;;;;5.63;5.43;;;;;;;;;;4938747;29;20641;-63
2023/05/05 14:28:23;;;;;;;7.10;6.20;;;;;;;;;;4938060;29;20639;-63
2023/05/05 14:30:53;;;;;;;6.37;5.93;;;;;;;;;;4937806;29;20612;-64
2023/05/05 14:33:22;;;;;;;6.50;6.00;;;;;;;;;;4935092;29;21051;-64
2023/05/05 14:35:50;;;;;;;6.23;5.93;;;;;;;;;;4934657;29;20643;-65
2023/05/05 14:38:18;;;;;;;6.27;5.87;;;;;;;;;;4935269;29;20633;-63
2023/05/05 14:40:46;;;;;;;11.17;5.93;;;;;;;;;;4935006;29;20747;-64
2023/05/05 14:43:15;;;;;;;6.00;5.70;;;;;;;;;;4932804;29;21206;-64
2023/05/05 14:45:43;;;;;;;9.93;5.90;;;;;;;;;;4952518;29;21210;-62
2023/05/05 14:48:13;;;;;;;6.40;6.10;;;;;;;;;;4933437;29;20628;-63
2023/05/05 14:50:41;;;;;;;5.63;5.43;;;;;;;;;;4933397;29;21053;-63
2023/05/05 14:53:10;;;;;;;7.87;5.37;;;;;;;;;;4932425;29;20664;-63
2023/05/05 14:55:38;;;;;;;5.17;4.80;;;;;;;;;;4930358;29;20635;-63
2023/05/05 14:58:06;;;;;;;6.20;4.80;;;;;;;;;;4931954;29;20644;-63